sensor_id;sensor_type;location;lat;lon;timestamp;P1;durP1;ratioP1;P2;durP2;ratioP2
77226;SDS011;66234;47.642;19.144;2023-03-08T00:02:23;29.40;;;13.80;;
77226;SDS011;66234;47.642;19.144;2023-03-08T00:05:25;28.67;;;14.00;;
77226;SDS011;66234;47.642;19.144;2023-03-08T00:08:28;34.00;;;14.27;;
77226;SDS011;66234;47.642;19.144;2023-03-08T00:11:31;31.98;;;14.18;;
77226;SDS011;66234;47.642;19.144;2023-03-08T00:14:33;31.10;;;16.55;;
77226;SDS011;66234;47.642;19.144;2023-03-08T00:17:37;39.03;;;17.58;;
77226;SDS011;66234;47.642;19.144;2023-03-08T00:20:40;43.73;;;18.23;;
77226;SDS011;66234;47.642;19.144;2023-03-08T00:23:43;44.67;;;18.25;;
77226;SDS011;66234;47.642;19.144;2023-03-08T00:26:46;43.88;;;18.35;;
77226;SDS011;66234;47.642;19.144;2023-03-08T00:29:49;38.33;;;18.17;;
77226;SDS011;66234;47.642;19.144;2023-03-08T00:32:52;39.65;;;17.77;;
77226;SDS011;66234;47.642;19.144;2023-03-08T00:35:59;39.20;;;17.87;;
77226;SDS011;66234;47.642;19.144;2023-03-08T00:39:04;39.90;;;16.75;;
77226;SDS011;66234;47.642;19.144;2023-03-08T00:42:06;39.92;;;17.20;;
77226;SDS011;66234;47.642;19.144;2023-03-08T00:45:09;41.40;;;18.13;;
77226;SDS011;66234;47.642;19.144;2023-03-08T00:48:12;39.80;;;19.05;;
77226;SDS011;66234;47.642;19.144;2023-03-08T00:51:15;37.87;;;17.73;;
77226;SDS011;66234;47.642;19.144;2023-03-08T00:54:21;38.13;;;18.08;;
77226;SDS011;66234;47.642;19.144;2023-03-08T00:57:24;35.42;;;16.75;;
77226;SDS011;66234;47.642;19.144;2023-03-08T01:00:27;35.97;;;17.50;;
77226;SDS011;66234;47.642;19.144;2023-03-08T01:03:30;57.00;;;22.77;;
77226;SDS011;66234;47.642;19.144;2023-03-08T01:06:33;38.00;;;16.80;;
77226;SDS011;66234;47.642;19.144;2023-03-08T01:09:35;36.95;;;16.20;;
77226;SDS011;66234;47.642;19.144;2023-03-08T01:12:38;39.90;;;16.85;;
77226;SDS011;66234;47.642;19.144;2023-03-08T01:15:41;39.47;;;18.08;;
77226;SDS011;66234;47.642;19.144;2023-03-08T01:18:44;38.45;;;18.63;;
77226;SDS011;66234;47.642;19.144;2023-03-08T01:21:47;35.47;;;17.33;;
77226;SDS011;66234;47.642;19.144;2023-03-08T01:24:49;45.13;;;18.05;;
77226;SDS011;66234;47.642;19.144;2023-03-08T01:27:53;41.00;;;18.35;;
77226;SDS011;66234;47.642;19.144;2023-03-08T01:31:00;35.60;;;17.98;;
77226;SDS011;66234;47.642;19.144;2023-03-08T01:34:04;44.15;;;19.35;;
77226;SDS011;66234;47.642;19.144;2023-03-08T01:37:06;37.40;;;17.50;;
77226;SDS011;66234;47.642;19.144;2023-03-08T01:40:10;39.00;;;17.50;;
77226;SDS011;66234;47.642;19.144;2023-03-08T01:43:28;40.78;;;17.50;;
77226;SDS011;66234;47.642;19.144;2023-03-08T01:46:35;37.75;;;17.10;;
77226;SDS011;66234;47.642;19.144;2023-03-08T01:50:02;40.13;;;17.80;;
77226;SDS011;66234;47.642;19.144;2023-03-08T01:53:09;47.17;;;19.10;;
77226;SDS011;66234;47.642;19.144;2023-03-08T01:56:12;41.78;;;18.20;;
77226;SDS011;66234;47.642;19.144;2023-03-08T01:59:17;42.67;;;18.33;;
77226;SDS011;66234;47.642;19.144;2023-03-08T02:02:25;39.35;;;18.02;;
77226;SDS011;66234;47.642;19.144;2023-03-08T02:05:31;40.17;;;19.40;;
77226;SDS011;66234;47.642;19.144;2023-03-08T02:08:43;41.20;;;17.67;;
77226;SDS011;66234;47.642;19.144;2023-03-08T02:11:46;41.20;;;18.52;;
77226;SDS011;66234;47.642;19.144;2023-03-08T02:14:50;47.58;;;20.52;;
77226;SDS011;66234;47.642;19.144;2023-03-08T02:17:52;45.93;;;18.87;;
77226;SDS011;66234;47.642;19.144;2023-03-08T02:20:55;44.57;;;18.60;;
77226;SDS011;66234;47.642;19.144;2023-03-08T02:24:04;46.30;;;18.80;;
77226;SDS011;66234;47.642;19.144;2023-03-08T02:27:23;41.33;;;18.05;;
77226;SDS011;66234;47.642;19.144;2023-03-08T02:30:32;39.00;;;18.40;;
77226;SDS011;66234;47.642;19.144;2023-03-08T02:33:38;41.42;;;17.17;;
77226;SDS011;66234;47.642;19.144;2023-03-08T02:36:40;40.35;;;18.65;;
77226;SDS011;66234;47.642;19.144;2023-03-08T02:39:43;47.92;;;18.25;;
77226;SDS011;66234;47.642;19.144;2023-03-08T02:42:45;42.40;;;18.30;;
77226;SDS011;66234;47.642;19.144;2023-03-08T02:45:48;42.23;;;18.40;;
77226;SDS011;66234;47.642;19.144;2023-03-08T02:48:50;38.15;;;17.50;;
77226;SDS011;66234;47.642;19.144;2023-03-08T02:51:55;36.22;;;18.17;;
77226;SDS011;66234;47.642;19.144;2023-03-08T02:54:58;36.67;;;16.98;;
77226;SDS011;66234;47.642;19.144;2023-03-08T02:58:04;38.47;;;16.93;;
77226;SDS011;66234;47.642;19.144;2023-03-08T03:01:09;42.92;;;17.83;;
77226;SDS011;66234;47.642;19.144;2023-03-08T03:04:16;38.38;;;17.10;;
77226;SDS011;66234;47.642;19.144;2023-03-08T03:07:21;38.83;;;16.48;;
77226;SDS011;66234;47.642;19.144;2023-03-08T03:10:24;36.93;;;15.97;;
77226;SDS011;66234;47.642;19.144;2023-03-08T03:13:27;36.47;;;17.60;;
77226;SDS011;66234;47.642;19.144;2023-03-08T03:16:30;42.95;;;16.95;;
77226;SDS011;66234;47.642;19.144;2023-03-08T03:19:32;37.67;;;17.15;;
77226;SDS011;66234;47.642;19.144;2023-03-08T03:22:35;40.07;;;17.50;;
77226;SDS011;66234;47.642;19.144;2023-03-08T03:25:40;41.20;;;17.45;;
77226;SDS011;66234;47.642;19.144;2023-03-08T03:28:48;41.70;;;17.33;;
77226;SDS011;66234;47.642;19.144;2023-03-08T03:31:54;45.10;;;19.30;;
77226;SDS011;66234;47.642;19.144;2023-03-08T03:34:58;41.27;;;17.30;;
77226;SDS011;66234;47.642;19.144;2023-03-08T03:38:02;47.95;;;19.42;;
77226;SDS011;66234;47.642;19.144;2023-03-08T03:41:06;43.72;;;18.20;;
77226;SDS011;66234;47.642;19.144;2023-03-08T03:44:11;41.25;;;19.27;;
77226;SDS011;66234;47.642;19.144;2023-03-08T03:47:16;44.17;;;15.80;;
77226;SDS011;66234;47.642;19.144;2023-03-08T03:50:20;37.50;;;17.67;;
77226;SDS011;66234;47.642;19.144;2023-03-08T03:53:32;40.72;;;17.48;;
77226;SDS011;66234;47.642;19.144;2023-03-08T03:56:36;36.72;;;16.98;;
77226;SDS011;66234;47.642;19.144;2023-03-08T03:59:41;38.83;;;18.07;;
77226;SDS011;66234;47.642;19.144;2023-03-08T04:02:45;43.95;;;19.05;;
77226;SDS011;66234;47.642;19.144;2023-03-08T04:05:51;41.47;;;19.02;;
77226;SDS011;66234;47.642;19.144;2023-03-08T04:08:56;58.22;;;20.90;;
77226;SDS011;66234;47.642;19.144;2023-03-08T04:12:02;50.23;;;20.33;;
77226;SDS011;66234;47.642;19.144;2023-03-08T04:15:08;51.40;;;20.77;;
77226;SDS011;66234;47.642;19.144;2023-03-08T04:18:11;55.85;;;19.98;;
77226;SDS011;66234;47.642;19.144;2023-03-08T04:21:17;59.15;;;21.90;;
77226;SDS011;66234;47.642;19.144;2023-03-08T04:24:20;60.30;;;21.80;;
77226;SDS011;66234;47.642;19.144;2023-03-08T04:27:26;43.67;;;18.00;;
77226;SDS011;66234;47.642;19.144;2023-03-08T04:30:29;42.20;;;17.67;;
77226;SDS011;66234;47.642;19.144;2023-03-08T04:33:34;44.00;;;17.30;;
77226;SDS011;66234;47.642;19.144;2023-03-08T04:36:37;41.28;;;18.70;;
77226;SDS011;66234;47.642;19.144;2023-03-08T04:39:40;40.33;;;15.73;;
77226;SDS011;66234;47.642;19.144;2023-03-08T04:42:45;36.37;;;16.97;;
77226;SDS011;66234;47.642;19.144;2023-03-08T04:45:51;39.42;;;16.67;;
77226;SDS011;66234;47.642;19.144;2023-03-08T04:48:54;37.53;;;16.52;;
77226;SDS011;66234;47.642;19.144;2023-03-08T04:52:00;40.28;;;17.02;;
77226;SDS011;66234;47.642;19.144;2023-03-08T04:55:04;39.23;;;17.30;;
77226;SDS011;66234;47.642;19.144;2023-03-08T04:58:08;48.83;;;19.43;;
77226;SDS011;66234;47.642;19.144;2023-03-08T05:01:18;56.78;;;23.75;;
77226;SDS011;66234;47.642;19.144;2023-03-08T05:04:24;57.45;;;22.70;;
77226;SDS011;66234;47.642;19.144;2023-03-08T05:07:27;52.90;;;21.98;;
77226;SDS011;66234;47.642;19.144;2023-03-08T05:10:31;61.67;;;22.90;;
77226;SDS011;66234;47.642;19.144;2023-03-08T05:13:34;47.28;;;19.90;;
77226;SDS011;66234;47.642;19.144;2023-03-08T05:16:40;40.30;;;18.40;;
77226;SDS011;66234;47.642;19.144;2023-03-08T05:19:44;53.72;;;20.90;;
77226;SDS011;66234;47.642;19.144;2023-03-08T05:22:51;43.33;;;20.50;;
77226;SDS011;66234;47.642;19.144;2023-03-08T05:26:07;42.50;;;17.63;;
77226;SDS011;66234;47.642;19.144;2023-03-08T05:29:12;42.85;;;18.35;;
77226;SDS011;66234;47.642;19.144;2023-03-08T05:32:15;50.60;;;21.17;;
77226;SDS011;66234;47.642;19.144;2023-03-08T05:35:18;46.78;;;19.38;;
77226;SDS011;66234;47.642;19.144;2023-03-08T05:38:24;47.80;;;18.93;;
77226;SDS011;66234;47.642;19.144;2023-03-08T05:41:28;52.80;;;19.93;;
77226;SDS011;66234;47.642;19.144;2023-03-08T05:44:32;46.85;;;19.50;;
77226;SDS011;66234;47.642;19.144;2023-03-08T05:47:37;46.85;;;21.48;;
77226;SDS011;66234;47.642;19.144;2023-03-08T05:50:42;48.00;;;19.98;;
77226;SDS011;66234;47.642;19.144;2023-03-08T05:53:45;47.87;;;20.30;;
77226;SDS011;66234;47.642;19.144;2023-03-08T05:56:50;45.00;;;20.90;;
77226;SDS011;66234;47.642;19.144;2023-03-08T05:59:59;46.22;;;20.55;;
77226;SDS011;66234;47.642;19.144;2023-03-08T06:03:04;50.40;;;20.95;;
77226;SDS011;66234;47.642;19.144;2023-03-08T06:06:10;46.80;;;21.40;;
77226;SDS011;66234;47.642;19.144;2023-03-08T06:09:14;49.13;;;22.47;;
77226;SDS011;66234;47.642;19.144;2023-03-08T06:12:18;47.67;;;20.63;;
77226;SDS011;66234;47.642;19.144;2023-03-08T06:15:25;40.58;;;20.45;;
77226;SDS011;66234;47.642;19.144;2023-03-08T06:18:31;25.60;;;11.82;;
77226;SDS011;66234;47.642;19.144;2023-03-08T06:21:36;18.05;;;6.63;;
77226;SDS011;66234;47.642;19.144;2023-03-08T06:24:39;14.13;;;7.03;;
77226;SDS011;66234;47.642;19.144;2023-03-08T06:27:43;15.77;;;6.57;;
77226;SDS011;66234;47.642;19.144;2023-03-08T06:31:00;13.00;;;5.82;;
77226;SDS011;66234;47.642;19.144;2023-03-08T06:34:04;11.70;;;6.00;;
77226;SDS011;66234;47.642;19.144;2023-03-08T06:37:08;11.23;;;5.43;;
77226;SDS011;66234;47.642;19.144;2023-03-08T06:40:11;16.73;;;5.87;;
77226;SDS011;66234;47.642;19.144;2023-03-08T06:43:16;12.67;;;5.47;;
77226;SDS011;66234;47.642;19.144;2023-03-08T06:46:19;10.23;;;5.25;;
77226;SDS011;66234;47.642;19.144;2023-03-08T06:49:24;11.38;;;5.18;;
77226;SDS011;66234;47.642;19.144;2023-03-08T06:52:31;9.80;;;5.47;;
77226;SDS011;66234;47.642;19.144;2023-03-08T06:55:40;10.43;;;5.13;;
77226;SDS011;66234;47.642;19.144;2023-03-08T06:58:43;10.23;;;5.43;;
77226;SDS011;66234;47.642;19.144;2023-03-08T07:01:47;9.50;;;4.68;;
77226;SDS011;66234;47.642;19.144;2023-03-08T07:04:50;10.85;;;5.65;;
77226;SDS011;66234;47.642;19.144;2023-03-08T07:07:54;9.98;;;4.80;;
77226;SDS011;66234;47.642;19.144;2023-03-08T07:11:01;11.63;;;5.40;;
77226;SDS011;66234;47.642;19.144;2023-03-08T07:14:06;13.53;;;5.63;;
77226;SDS011;66234;47.642;19.144;2023-03-08T07:17:10;9.90;;;5.05;;
77226;SDS011;66234;47.642;19.144;2023-03-08T07:20:14;8.75;;;4.88;;
77226;SDS011;66234;47.642;19.144;2023-03-08T07:23:19;11.90;;;5.55;;
77226;SDS011;66234;47.642;19.144;2023-03-08T07:26:22;12.60;;;5.70;;
77226;SDS011;66234;47.642;19.144;2023-03-08T07:29:27;11.57;;;5.17;;
77226;SDS011;66234;47.642;19.144;2023-03-08T07:32:32;11.02;;;5.70;;
77226;SDS011;66234;47.642;19.144;2023-03-08T07:35:36;12.18;;;5.30;;
77226;SDS011;66234;47.642;19.144;2023-03-08T07:38:42;10.68;;;5.43;;
77226;SDS011;66234;47.642;19.144;2023-03-08T07:41:46;12.40;;;5.37;;
77226;SDS011;66234;47.642;19.144;2023-03-08T07:44:52;11.73;;;6.23;;
77226;SDS011;66234;47.642;19.144;2023-03-08T07:47:57;6.97;;;3.17;;
77226;SDS011;66234;47.642;19.144;2023-03-08T07:51:02;10.43;;;4.97;;
77226;SDS011;66234;47.642;19.144;2023-03-08T07:54:11;10.93;;;6.13;;
77226;SDS011;66234;47.642;19.144;2023-03-08T07:57:15;10.53;;;5.47;;
77226;SDS011;66234;47.642;19.144;2023-03-08T08:00:20;9.67;;;4.97;;
77226;SDS011;66234;47.642;19.144;2023-03-08T08:03:27;10.93;;;5.70;;
77226;SDS011;66234;47.642;19.144;2023-03-08T08:06:31;10.15;;;4.63;;
77226;SDS011;66234;47.642;19.144;2023-03-08T08:09:34;10.07;;;4.80;;
77226;SDS011;66234;47.642;19.144;2023-03-08T08:12:40;10.40;;;5.53;;
77226;SDS011;66234;47.642;19.144;2023-03-08T08:15:45;9.57;;;5.00;;
77226;SDS011;66234;47.642;19.144;2023-03-08T08:18:50;10.85;;;4.60;;
77226;SDS011;66234;47.642;19.144;2023-03-08T08:21:56;10.30;;;4.72;;
77226;SDS011;66234;47.642;19.144;2023-03-08T08:24:59;13.07;;;5.55;;
77226;SDS011;66234;47.642;19.144;2023-03-08T08:28:04;9.63;;;5.40;;
77226;SDS011;66234;47.642;19.144;2023-03-08T08:31:12;10.07;;;5.27;;
77226;SDS011;66234;47.642;19.144;2023-03-08T08:34:18;9.07;;;5.03;;
77226;SDS011;66234;47.642;19.144;2023-03-08T08:37:22;10.38;;;5.47;;
77226;SDS011;66234;47.642;19.144;2023-03-08T08:40:26;10.18;;;5.15;;
77226;SDS011;66234;47.642;19.144;2023-03-08T08:43:31;9.90;;;5.40;;
77226;SDS011;66234;47.642;19.144;2023-03-08T08:46:36;9.33;;;5.23;;
77226;SDS011;66234;47.642;19.144;2023-03-08T08:49:39;10.60;;;5.43;;
77226;SDS011;66234;47.642;19.144;2023-03-08T08:52:43;8.65;;;5.00;;
77226;SDS011;66234;47.642;19.144;2023-03-08T08:55:46;8.75;;;5.55;;
77226;SDS011;66234;47.642;19.144;2023-03-08T08:58:49;12.40;;;6.07;;
77226;SDS011;66234;47.642;19.144;2023-03-08T09:01:55;9.00;;;5.10;;
77226;SDS011;66234;47.642;19.144;2023-03-08T09:04:59;10.35;;;5.45;;
77226;SDS011;66234;47.642;19.144;2023-03-08T09:08:03;11.00;;;6.10;;
77226;SDS011;66234;47.642;19.144;2023-03-08T09:11:08;10.70;;;5.70;;
77226;SDS011;66234;47.642;19.144;2023-03-08T09:14:13;11.37;;;4.87;;
77226;SDS011;66234;47.642;19.144;2023-03-08T09:17:17;9.33;;;5.13;;
77226;SDS011;66234;47.642;19.144;2023-03-08T09:20:20;11.05;;;5.03;;
77226;SDS011;66234;47.642;19.144;2023-03-08T09:23:26;10.55;;;5.15;;
77226;SDS011;66234;47.642;19.144;2023-03-08T09:26:32;11.85;;;5.45;;
77226;SDS011;66234;47.642;19.144;2023-03-08T09:29:36;11.30;;;5.03;;
77226;SDS011;66234;47.642;19.144;2023-03-08T09:32:39;12.67;;;8.03;;
77226;SDS011;66234;47.642;19.144;2023-03-08T09:35:53;50.05;;;31.80;;
77226;SDS011;66234;47.642;19.144;2023-03-08T09:38:57;11.52;;;6.13;;
77226;SDS011;66234;47.642;19.144;2023-03-08T09:42:03;13.68;;;6.07;;
77226;SDS011;66234;47.642;19.144;2023-03-08T09:45:17;11.50;;;5.70;;
77226;SDS011;66234;47.642;19.144;2023-03-08T09:48:26;13.07;;;5.87;;
77226;SDS011;66234;47.642;19.144;2023-03-08T09:51:33;10.95;;;5.65;;
77226;SDS011;66234;47.642;19.144;2023-03-08T09:54:39;10.13;;;5.47;;
77226;SDS011;66234;47.642;19.144;2023-03-08T09:57:50;11.88;;;5.30;;
77226;SDS011;66234;47.642;19.144;2023-03-08T10:01:04;13.00;;;6.30;;
77226;SDS011;66234;47.642;19.144;2023-03-08T10:04:30;10.77;;;5.50;;
77226;SDS011;66234;47.642;19.144;2023-03-08T10:11:12;8.30;;;5.70;;
77226;SDS011;66234;47.642;19.144;2023-03-08T10:14:26;9.52;;;5.85;;
77226;SDS011;66234;47.642;19.144;2023-03-08T10:17:39;11.07;;;5.63;;
77226;SDS011;66234;47.642;19.144;2023-03-08T10:21:00;15.47;;;6.00;;
77226;SDS011;66234;47.642;19.144;2023-03-08T10:24:13;11.00;;;6.10;;
77226;SDS011;66234;47.642;19.144;2023-03-08T10:27:19;11.93;;;6.30;;
77226;SDS011;66234;47.642;19.144;2023-03-08T10:30:26;9.77;;;5.50;;
77226;SDS011;66234;47.642;19.144;2023-03-08T10:33:34;11.23;;;5.53;;
77226;SDS011;66234;47.642;19.144;2023-03-08T10:39:53;16.02;;;6.20;;
77226;SDS011;66234;47.642;19.144;2023-03-08T10:42:59;12.07;;;6.30;;
77226;SDS011;66234;47.642;19.144;2023-03-08T10:46:11;10.48;;;5.57;;
77226;SDS011;66234;47.642;19.144;2023-03-08T10:49:18;9.77;;;5.03;;
77226;SDS011;66234;47.642;19.144;2023-03-08T10:52:24;13.20;;;5.83;;
77226;SDS011;66234;47.642;19.144;2023-03-08T10:55:41;9.55;;;5.05;;
77226;SDS011;66234;47.642;19.144;2023-03-08T10:58:46;12.43;;;5.75;;
77226;SDS011;66234;47.642;19.144;2023-03-08T11:01:54;10.02;;;5.30;;
77226;SDS011;66234;47.642;19.144;2023-03-08T11:05:02;10.27;;;5.17;;
77226;SDS011;66234;47.642;19.144;2023-03-08T11:08:21;11.63;;;5.20;;
77226;SDS011;66234;47.642;19.144;2023-03-08T11:11:40;13.57;;;5.55;;
77226;SDS011;66234;47.642;19.144;2023-03-08T11:14:43;10.02;;;5.43;;
77226;SDS011;66234;47.642;19.144;2023-03-08T11:37:55;21.23;;;10.50;;
77226;SDS011;66234;47.642;19.144;2023-03-08T11:55:41;20.60;;;9.90;;
77226;SDS011;66234;47.642;19.144;2023-03-08T11:58:36;15.73;;;7.53;;
77226;SDS011;66234;47.642;19.144;2023-03-08T12:01:51;11.98;;;7.97;;
77226;SDS011;66234;47.642;19.144;2023-03-08T12:09:05;15.07;;;7.68;;
77226;SDS011;66234;47.642;19.144;2023-03-08T12:12:13;13.50;;;7.07;;
77226;SDS011;66234;47.642;19.144;2023-03-08T12:15:25;17.23;;;6.57;;
77226;SDS011;66234;47.642;19.144;2023-03-08T12:28:38;11.63;;;6.13;;
77226;SDS011;66234;47.642;19.144;2023-03-08T12:31:45;12.37;;;6.07;;
77226;SDS011;66234;47.642;19.144;2023-03-08T12:34:59;15.98;;;6.82;;
77226;SDS011;66234;47.642;19.144;2023-03-08T12:41:20;13.10;;;5.90;;
77226;SDS011;66234;47.642;19.144;2023-03-08T12:44:31;12.27;;;6.67;;
77226;SDS011;66234;47.642;19.144;2023-03-08T12:47:33;11.73;;;6.60;;
77226;SDS011;66234;47.642;19.144;2023-03-08T12:50:40;17.75;;;7.57;;
77226;SDS011;66234;47.642;19.144;2023-03-08T12:56:53;9.48;;;5.07;;
77226;SDS011;66234;47.642;19.144;2023-03-08T13:00:03;9.77;;;5.13;;
77226;SDS011;66234;47.642;19.144;2023-03-08T13:09:30;9.50;;;5.13;;
77226;SDS011;66234;47.642;19.144;2023-03-08T13:19:24;15.17;;;6.00;;
77226;SDS011;66234;47.642;19.144;2023-03-08T13:22:32;18.98;;;7.75;;
77226;SDS011;66234;47.642;19.144;2023-03-08T13:28:52;12.27;;;6.30;;
77226;SDS011;66234;47.642;19.144;2023-03-08T13:31:57;13.30;;;6.63;;
77226;SDS011;66234;47.642;19.144;2023-03-08T13:35:10;16.23;;;6.70;;
77226;SDS011;66234;47.642;19.144;2023-03-08T13:38:21;11.05;;;6.25;;
77226;SDS011;66234;47.642;19.144;2023-03-08T13:41:38;13.80;;;6.43;;
77226;SDS011;66234;47.642;19.144;2023-03-08T13:44:44;10.68;;;5.75;;
77226;SDS011;66234;47.642;19.144;2023-03-08T13:47:46;13.63;;;6.00;;
77226;SDS011;66234;47.642;19.144;2023-03-08T13:50:50;9.20;;;5.07;;
77226;SDS011;66234;47.642;19.144;2023-03-08T13:53:54;10.70;;;5.60;;
77226;SDS011;66234;47.642;19.144;2023-03-08T13:56:58;10.43;;;3.95;;
77226;SDS011;66234;47.642;19.144;2023-03-08T14:03:26;10.03;;;4.83;;
77226;SDS011;66234;47.642;19.144;2023-03-08T14:06:31;13.97;;;4.90;;
77226;SDS011;66234;47.642;19.144;2023-03-08T14:09:35;9.55;;;4.78;;
77226;SDS011;66234;47.642;19.144;2023-03-08T14:12:37;9.50;;;4.40;;
77226;SDS011;66234;47.642;19.144;2023-03-08T14:15:46;8.10;;;4.07;;
77226;SDS011;66234;47.642;19.144;2023-03-08T14:18:54;8.90;;;3.53;;
77226;SDS011;66234;47.642;19.144;2023-03-08T14:22:17;9.43;;;3.83;;
77226;SDS011;66234;47.642;19.144;2023-03-08T14:25:39;7.25;;;3.40;;
77226;SDS011;66234;47.642;19.144;2023-03-08T14:28:41;8.45;;;3.67;;
77226;SDS011;66234;47.642;19.144;2023-03-08T14:35:16;9.13;;;3.97;;
77226;SDS011;66234;47.642;19.144;2023-03-08T14:38:25;7.33;;;4.10;;
77226;SDS011;66234;47.642;19.144;2023-03-08T14:41:33;7.28;;;3.80;;
77226;SDS011;66234;47.642;19.144;2023-03-08T14:44:37;9.18;;;4.22;;
77226;SDS011;66234;47.642;19.144;2023-03-08T14:47:46;8.77;;;4.47;;
77226;SDS011;66234;47.642;19.144;2023-03-08T14:50:52;8.87;;;4.20;;
77226;SDS011;66234;47.642;19.144;2023-03-08T14:54:04;9.03;;;4.90;;
77226;SDS011;66234;47.642;19.144;2023-03-08T14:57:24;8.45;;;4.22;;
77226;SDS011;66234;47.642;19.144;2023-03-08T15:00:30;10.00;;;5.07;;
77226;SDS011;66234;47.642;19.144;2023-03-08T15:03:34;9.32;;;4.90;;
77226;SDS011;66234;47.642;19.144;2023-03-08T15:06:37;10.73;;;6.07;;
77226;SDS011;66234;47.642;19.144;2023-03-08T15:09:41;10.73;;;5.10;;
77226;SDS011;66234;47.642;19.144;2023-03-08T15:12:44;10.32;;;4.70;;
77226;SDS011;66234;47.642;19.144;2023-03-08T15:15:47;9.38;;;3.72;;
77226;SDS011;66234;47.642;19.144;2023-03-08T15:18:50;9.48;;;3.72;;
77226;SDS011;66234;47.642;19.144;2023-03-08T15:21:53;9.00;;;3.60;;
77226;SDS011;66234;47.642;19.144;2023-03-08T15:24:55;11.30;;;4.40;;
77226;SDS011;66234;47.642;19.144;2023-03-08T15:27:58;106.13;;;28.23;;
77226;SDS011;66234;47.642;19.144;2023-03-08T15:31:00;21.80;;;7.70;;
77226;SDS011;66234;47.642;19.144;2023-03-08T15:34:03;14.88;;;7.35;;
77226;SDS011;66234;47.642;19.144;2023-03-08T15:37:06;11.63;;;4.10;;
77226;SDS011;66234;47.642;19.144;2023-03-08T15:40:15;11.43;;;4.73;;
77226;SDS011;66234;47.642;19.144;2023-03-08T15:43:25;8.90;;;3.88;;
77226;SDS011;66234;47.642;19.144;2023-03-08T15:46:28;11.30;;;4.60;;
77226;SDS011;66234;47.642;19.144;2023-03-08T15:49:30;6.65;;;3.88;;
77226;SDS011;66234;47.642;19.144;2023-03-08T15:52:33;10.10;;;4.50;;
77226;SDS011;66234;47.642;19.144;2023-03-08T15:55:38;10.77;;;4.47;;
77226;SDS011;66234;47.642;19.144;2023-03-08T15:58:41;11.93;;;4.72;;
77226;SDS011;66234;47.642;19.144;2023-03-08T16:01:45;12.85;;;4.60;;
77226;SDS011;66234;47.642;19.144;2023-03-08T16:04:48;7.80;;;4.30;;
77226;SDS011;66234;47.642;19.144;2023-03-08T16:07:54;9.17;;;5.03;;
77226;SDS011;66234;47.642;19.144;2023-03-08T16:10:58;13.40;;;6.10;;
77226;SDS011;66234;47.642;19.144;2023-03-08T16:14:05;11.38;;;4.90;;
77226;SDS011;66234;47.642;19.144;2023-03-08T16:17:07;12.82;;;6.07;;
77226;SDS011;66234;47.642;19.144;2023-03-08T16:20:11;10.05;;;4.53;;
77226;SDS011;66234;47.642;19.144;2023-03-08T16:23:14;12.90;;;4.97;;
77226;SDS011;66234;47.642;19.144;2023-03-08T16:26:18;8.73;;;4.43;;
77226;SDS011;66234;47.642;19.144;2023-03-08T16:29:21;10.15;;;4.70;;
77226;SDS011;66234;47.642;19.144;2023-03-08T16:32:23;8.57;;;4.78;;
77226;SDS011;66234;47.642;19.144;2023-03-08T16:35:26;9.32;;;4.88;;
77226;SDS011;66234;47.642;19.144;2023-03-08T16:38:29;11.93;;;5.50;;
77226;SDS011;66234;47.642;19.144;2023-03-08T16:41:32;8.80;;;4.80;;
77226;SDS011;66234;47.642;19.144;2023-03-08T16:44:39;9.48;;;5.30;;
77226;SDS011;66234;47.642;19.144;2023-03-08T16:47:42;14.98;;;5.95;;
77226;SDS011;66234;47.642;19.144;2023-03-08T16:50:55;13.23;;;6.35;;
77226;SDS011;66234;47.642;19.144;2023-03-08T16:53:59;10.80;;;5.90;;
77226;SDS011;66234;47.642;19.144;2023-03-08T16:57:02;14.90;;;6.90;;
77226;SDS011;66234;47.642;19.144;2023-03-08T17:00:20;13.98;;;6.68;;
77226;SDS011;66234;47.642;19.144;2023-03-08T17:03:23;12.52;;;6.35;;
77226;SDS011;66234;47.642;19.144;2023-03-08T17:06:27;17.10;;;9.30;;
77226;SDS011;66234;47.642;19.144;2023-03-08T17:09:36;12.03;;;5.97;;
77226;SDS011;66234;47.642;19.144;2023-03-08T17:12:39;13.00;;;6.33;;
77226;SDS011;66234;47.642;19.144;2023-03-08T17:15:43;12.77;;;6.43;;
77226;SDS011;66234;47.642;19.144;2023-03-08T17:18:49;10.23;;;5.65;;
77226;SDS011;66234;47.642;19.144;2023-03-08T17:21:52;13.27;;;5.80;;
77226;SDS011;66234;47.642;19.144;2023-03-08T17:24:55;16.03;;;7.00;;
77226;SDS011;66234;47.642;19.144;2023-03-08T17:27:58;13.33;;;7.10;;
77226;SDS011;66234;47.642;19.144;2023-03-08T17:31:01;11.80;;;6.88;;
77226;SDS011;66234;47.642;19.144;2023-03-08T17:34:07;13.63;;;7.20;;
77226;SDS011;66234;47.642;19.144;2023-03-08T17:37:10;12.90;;;6.80;;
77226;SDS011;66234;47.642;19.144;2023-03-08T17:40:13;16.37;;;6.50;;
77226;SDS011;66234;47.642;19.144;2023-03-08T17:43:15;12.33;;;6.13;;
77226;SDS011;66234;47.642;19.144;2023-03-08T17:46:22;12.88;;;6.85;;
77226;SDS011;66234;47.642;19.144;2023-03-08T17:49:27;14.15;;;6.78;;
77226;SDS011;66234;47.642;19.144;2023-03-08T17:52:31;12.52;;;6.57;;
77226;SDS011;66234;47.642;19.144;2023-03-08T17:55:34;10.87;;;6.43;;
77226;SDS011;66234;47.642;19.144;2023-03-08T17:58:36;11.53;;;6.30;;
77226;SDS011;66234;47.642;19.144;2023-03-08T18:01:40;13.70;;;7.18;;
77226;SDS011;66234;47.642;19.144;2023-03-08T18:04:46;13.30;;;7.85;;
77226;SDS011;66234;47.642;19.144;2023-03-08T18:07:52;14.25;;;7.10;;
77226;SDS011;66234;47.642;19.144;2023-03-08T18:10:55;13.63;;;6.80;;
77226;SDS011;66234;47.642;19.144;2023-03-08T18:13:57;13.13;;;6.67;;
77226;SDS011;66234;47.642;19.144;2023-03-08T18:17:00;13.68;;;6.53;;
77226;SDS011;66234;47.642;19.144;2023-03-08T18:20:03;11.65;;;6.20;;
77226;SDS011;66234;47.642;19.144;2023-03-08T18:23:07;18.75;;;6.68;;
77226;SDS011;66234;47.642;19.144;2023-03-08T18:26:10;15.63;;;6.70;;
77226;SDS011;66234;47.642;19.144;2023-03-08T18:29:14;11.20;;;6.60;;
77226;SDS011;66234;47.642;19.144;2023-03-08T18:32:18;14.90;;;6.65;;
77226;SDS011;66234;47.642;19.144;2023-03-08T18:35:20;12.68;;;7.57;;
77226;SDS011;66234;47.642;19.144;2023-03-08T18:38:24;14.75;;;8.10;;
77226;SDS011;66234;47.642;19.144;2023-03-08T18:41:27;13.30;;;8.07;;
77226;SDS011;66234;47.642;19.144;2023-03-08T18:44:31;14.00;;;6.97;;
77226;SDS011;66234;47.642;19.144;2023-03-08T18:47:34;12.57;;;7.72;;
77226;SDS011;66234;47.642;19.144;2023-03-08T18:50:39;12.48;;;7.57;;
77226;SDS011;66234;47.642;19.144;2023-03-08T18:53:44;12.85;;;7.30;;
77226;SDS011;66234;47.642;19.144;2023-03-08T18:56:47;17.50;;;7.93;;
77226;SDS011;66234;47.642;19.144;2023-03-08T18:59:55;15.23;;;7.60;;
77226;SDS011;66234;47.642;19.144;2023-03-08T19:02:58;14.65;;;8.40;;
77226;SDS011;66234;47.642;19.144;2023-03-08T19:06:01;19.05;;;10.00;;
77226;SDS011;66234;47.642;19.144;2023-03-08T19:09:07;17.35;;;10.23;;
77226;SDS011;66234;47.642;19.144;2023-03-08T19:12:12;16.00;;;8.90;;
77226;SDS011;66234;47.642;19.144;2023-03-08T19:15:15;19.43;;;10.03;;
77226;SDS011;66234;47.642;19.144;2023-03-08T19:18:17;21.67;;;10.27;;
77226;SDS011;66234;47.642;19.144;2023-03-08T19:21:22;20.20;;;10.57;;
77226;SDS011;66234;47.642;19.144;2023-03-08T19:24:26;19.33;;;10.48;;
77226;SDS011;66234;47.642;19.144;2023-03-08T19:27:29;27.23;;;11.73;;